Winnsboro, Louisiana
Current Conditions -  °F | °C
As of 3:53 PM on Friday 28 Nov 2014 (Local Time) from KMLU Reporting Station
Clear Clear  
Wind Chill: 61°   Ceiling: Unl
Heat Index: 61°   Visibility: 10mi
Dew Point: 35°   Wind: 8mph
Humidity: 38%   Direction: 190°S
Pressure: 30.2"   Gusts: NA
Location:  32.17°N, 91.72°W
Report Text: KMLU 282153Z 19007KT 10SM CLR 16/02 A3020 RMK AO2 SLP227 T01610017
Loading
Personal Weather Stations






























Interactive Weather Map New forecast layout! Learn more

10-Day Weather Forecast

Advertisements
Track Severe Weather on mobile